Time;durP1;ratioP1;P1;durP2;ratioP2;P2;SDS_P1;SDS_P2;PMS_P1;PMS_P2;Temp;Humidity;BMP_temperature;BMP_pressure;BME280_temperature;BME280_humidity;BME280_pressure;Samples;Min_cycle;Max_cycle;Signal;HPM_P1;HPM_P2
2022/06/09 00:01:45;;;;;;;7.07;5.80;;;;;;;21.54;50.71;92717.78;5010493;28;20113;-89
2022/06/09 00:04:21;;;;;;;9.10;6.32;;;;;;;21.53;50.69;92710.81;4991231;28;20051;-88
2022/06/09 00:06:58;;;;;;;8.75;5.50;;;;;;;21.52;50.65;92709.34;4994421;28;20048;-88
2022/06/09 00:09:27;;;;;;;9.13;5.43;;;;;;;21.52;50.77;92712.09;5022155;28;20460;-88
2022/06/09 00:11:53;;;;;;;8.23;5.68;;;;;;;21.52;50.96;92703.84;5009960;28;20048;-88
2022/06/09 00:14:18;;;;;;;6.20;5.03;;;;;;;21.51;50.75;92707.88;5007778;28;20097;-89
2022/06/09 00:16:44;;;;;;;8.25;5.10;;;;;;;21.51;50.81;92699.63;5005438;28;20048;-89
2022/06/09 00:19:10;;;;;;;6.65;5.60;;;;;;;21.53;50.55;92705.31;4970278;28;20037;-88
2022/06/09 00:21:36;;;;;;;9.40;5.85;;;;;;;21.52;50.92;92706.59;4967209;28;20041;-88
2022/06/09 00:24:01;;;;;;;6.43;5.38;;;;;;;21.51;50.69;92703.09;5011499;28;20413;-88
2022/06/09 00:26:27;;;;;;;7.38;5.75;;;;;;;21.50;50.61;92695.41;5001853;28;20033;-88
2022/06/09 00:28:53;;;;;;;7.07;4.90;;;;;;;21.51;50.87;92703.09;4981854;28;20143;-88
2022/06/09 00:31:20;;;;;;;7.15;4.93;;;;;;;21.49;50.96;92702.19;4998188;28;20087;-89
2022/06/09 00:33:45;;;;;;;7.32;5.53;;;;;;;21.49;50.90;92705.66;4961977;28;20049;-88
2022/06/09 00:36:11;;;;;;;6.22;5.28;;;;;;;21.51;50.77;92710.63;4960515;28;20050;-88
2022/06/09 00:38:36;;;;;;;6.13;4.82;;;;;;;21.51;50.66;92705.84;4965124;28;20038;-89
2022/06/09 00:41:02;;;;;;;6.07;5.03;;;;;;;21.51;50.78;92708.59;4945719;28;20038;-89
2022/06/09 00:43:28;;;;;;;6.13;4.80;;;;;;;21.49;50.70;92702.19;4960904;28;20065;-88
2022/06/09 00:46:10;;;;;;;6.70;4.60;;;;;;;21.48;50.86;92708.97;4950360;28;20042;-88
2022/06/09 00:48:53;;;;;;;5.47;4.70;;;;;;;21.50;50.88;92692.66;4933092;28;20048;-88
2022/06/09 00:51:32;;;;;;;5.85;4.53;;;;;;;21.48;51.13;92704.19;4930562;28;20047;-88
2022/06/09 00:54:03;;;;;;;6.25;5.10;;;;;;;21.48;50.73;92711.72;4952078;28;20496;-89
2022/06/09 00:56:29;;;;;;;7.20;5.10;;;;;;;21.49;50.74;92710.44;4945934;28;20081;-88
2022/06/09 00:58:54;;;;;;;6.88;4.72;;;;;;;21.48;50.74;92711.72;4949178;28;20034;-88
2022/06/09 01:01:20;;;;;;;5.90;4.30;;;;;;;21.47;51.05;92710.97;4965268;28;20035;-89
2022/06/09 01:03:54;;;;;;;7.28;4.65;;;;;;;21.47;50.61;92715.75;4952129;28;20458;-89
2022/06/09 01:06:23;;;;;;;6.35;4.60;;;;;;;21.48;50.93;92711.72;4978046;28;20088;-88
2022/06/09 01:08:55;;;;;;;7.57;5.65;;;;;;;21.47;50.81;92715.75;4986655;28;20037;-89
2022/06/09 01:11:21;;;;;;;7.05;4.38;;;;;;;21.47;50.93;92710.25;4977543;28;20077;-88
2022/06/09 01:13:47;;;;;;;6.22;4.00;;;;;;;21.47;50.75;92713.00;4974766;28;20120;-88
2022/06/09 01:16:20;;;;;;;6.05;4.18;;;;;;;21.47;50.71;92713.00;4978047;28;20552;-89
2022/06/09 01:19:01;;;;;;;5.78;4.22;;;;;;;21.46;50.73;92715.00;4991115;28;20061;-89
2022/06/09 01:21:45;;;;;;;7.45;4.68;;;;;;;21.45;50.93;92715.56;4970737;28;20045;-88
2022/06/09 01:24:29;;;;;;;6.03;4.70;;;;;;;21.46;50.88;92719.78;5001799;28;20072;-88
2022/06/09 01:27:10;;;;;;;5.38;4.55;;;;;;;21.46;50.72;92708.78;5014229;28;20400;-88
2022/06/09 01:29:41;;;;;;;5.50;4.45;;;;;;;21.46;50.75;92717.75;5009283;28;20033;-88
2022/06/09 01:32:06;;;;;;;6.97;4.97;;;;;;;21.48;50.78;92711.72;4994118;28;20049;-89
2022/06/09 01:35:01;;;;;;;5.55;4.35;;;;;;;21.45;50.76;92712.81;4970241;28;20112;-88
2022/06/09 01:37:35;;;;;;;9.82;5.20;;;;;;;21.46;50.74;92719.78;4986978;28;20060;-89
2022/06/09 01:40:03;;;;;;;6.95;4.30;;;;;;;21.47;50.82;92715.75;4992837;28;20038;-89
2022/06/09 01:42:31;;;;;;;5.88;4.75;;;;;;;21.46;50.80;92711.53;5008002;28;20136;-88
2022/06/09 01:45:00;;;;;;;5.28;4.65;;;;;;;21.45;50.73;92723.81;5000627;28;20041;-88
2022/06/09 01:47:31;;;;;;;6.17;4.40;;;;;;;21.44;50.96;92714.81;5000372;28;20044;-88
2022/06/09 01:49:57;;;;;;;6.10;4.60;;;;;;;21.44;50.75;92720.31;4989685;28;20044;-88
2022/06/09 01:52:23;;;;;;;4.72;4.20;;;;;;;21.44;50.84;92719.59;4997198;28;20055;-89
2022/06/09 01:54:48;;;;;;;5.13;4.07;;;;;;;21.43;50.49;92707.88;5021282;28;20064;-89
2022/06/09 01:57:21;;;;;;;4.88;4.03;;;;;;;21.42;50.46;92706.41;5008237;28;20036;-88
2022/06/09 02:00:12;;;;;;;4.78;3.75;;;;;;;21.44;50.93;92714.09;5020512;28;20487;-88
2022/06/09 02:02:45;;;;;;;6.60;4.20;;;;;;;21.44;50.73;92700.34;5020341;28;20647;-88
2022/06/09 02:05:13;;;;;;;5.15;4.20;;;;;;;21.43;50.71;92702.38;4984027;28;20138;-89
2022/06/09 02:07:39;;;;;;;8.85;4.18;;;;;;;21.43;50.62;92705.13;5016094;28;20091;-88
2022/06/09 02:10:26;;;;;;;6.05;4.38;;;;;;;21.42;50.86;92709.16;4997735;28;20124;-88
2022/06/09 02:12:51;;;;;;;6.95;4.53;;;;;;;21.41;50.70;92699.44;5052914;28;20124;-88
2022/06/09 02:15:21;;;;;;;8.23;4.65;;;;;;;21.43;50.89;92696.16;5020881;28;20052;-88
2022/06/09 02:17:48;;;;;;;5.30;3.90;;;;;;;21.41;50.88;92691.19;4999845;28;20124;-89
2022/06/09 02:20:13;;;;;;;6.38;4.53;;;;;;;21.42;50.68;92692.66;4967398;28;20134;-89
2022/06/09 02:22:39;;;;;;;4.85;4.32;;;;;;;21.42;50.85;92697.44;4978855;28;20041;-88
2022/06/09 02:25:05;;;;;;;5.78;3.97;;;;;;;21.42;50.55;92700.19;4998814;28;20072;-88
2022/06/09 02:27:30;;;;;;;5.50;3.55;;;;;;;21.41;50.59;92688.44;5008906;28;20457;-89
2022/06/09 02:29:55;;;;;;;6.20;4.15;;;;;;;21.44;50.90;92700.34;4987787;28;20407;-88
2022/06/09 02:32:22;;;;;;;6.07;4.40;;;;;;;21.41;50.75;92693.94;5003578;28;20045;-89
2022/06/09 02:34:47;;;;;;;5.05;3.97;;;;;;;21.42;50.93;92697.44;4973239;28;20033;-88
2022/06/09 02:37:12;;;;;;;5.32;3.83;;;;;;;21.41;51.09;92693.94;4986712;28;20041;-88
2022/06/09 02:39:39;;;;;;;5.00;3.83;;;;;;;21.41;50.83;92698.72;5003517;28;20045;-88
2022/06/09 02:42:06;;;;;;;6.50;4.38;;;;;;;21.41;50.71;92699.44;5002218;28;20492;-88
2022/06/09 02:44:32;;;;;;;6.03;3.85;;;;;;;21.41;50.81;92693.22;5004673;28;20056;-88
2022/06/09 02:46:57;;;;;;;5.15;3.70;;;;;;;21.42;50.89;92705.66;5007549;28;20037;-89
2022/06/09 02:49:23;;;;;;;5.72;3.90;;;;;;;21.42;50.64;92705.66;4969672;28;20041;-88
2022/06/09 02:51:48;;;;;;;4.28;3.75;;;;;;;21.39;50.88;92704.75;4956775;28;20037;-88
2022/06/09 02:54:14;;;;;;;5.00;4.10;;;;;;;21.41;51.00;92704.94;4992123;28;20036;-89
2022/06/09 02:56:40;;;;;;;4.15;3.60;;;;;;;21.38;50.81;92702.53;4993035;28;20044;-88
2022/06/09 02:59:05;;;;;;;4.28;3.55;;;;;;;21.39;50.89;92699.25;4998912;28;20109;-89
2022/06/09 03:01:31;;;;;;;6.68;4.13;;;;;;;21.40;50.89;92708.97;4975310;28;20140;-88
2022/06/09 03:03:56;;;;;;;5.13;3.33;;;;;;;21.40;50.80;92711.72;4953412;28;20471;-88
2022/06/09 03:06:22;;;;;;;5.70;3.47;;;;;;;21.39;50.73;92706.75;4964885;28;20037;-88
2022/06/09 03:08:47;;;;;;;4.93;3.90;;;;;;;21.39;50.95;92704.75;5015029;28;20091;-88
2022/06/09 03:11:13;;;;;;;3.47;3.03;;;;;;;21.38;50.74;92711.53;5002696;28;20044;-88
2022/06/09 03:13:42;;;;;;;4.93;3.83;;;;;;;21.38;50.70;92710.78;5010738;28;20399;-88
2022/06/09 03:16:07;;;;;;;4.75;3.55;;;;;;;21.41;50.78;92717.94;5001759;28;20899;-88
2022/06/09 03:18:33;;;;;;;5.93;4.22;;;;;;;21.40;50.82;92713.72;4987280;28;20048;-88
2022/06/09 03:20:58;;;;;;;4.05;3.20;;;;;;;21.38;50.77;92708.78;4966088;28;20510;-88
2022/06/09 03:23:24;;;;;;;4.43;3.70;;;;;;;21.39;50.76;92715.75;4993897;28;20041;-88
2022/06/09 03:25:49;;;;;;;5.13;3.42;;;;;;;21.40;50.85;92714.47;5002528;28;20536;-88
2022/06/09 03:28:15;;;;;;;4.65;3.70;;;;;;;21.38;50.70;92711.53;5010059;28;20044;-88
2022/06/09 03:30:40;;;;;;;5.30;3.42;;;;;;;21.39;50.85;92709.50;5000980;28;20385;-88
2022/06/09 03:33:06;;;;;;;5.13;3.40;;;;;;;21.39;50.90;92715.00;5001469;28;20045;-88
2022/06/09 03:35:33;;;;;;;4.03;3.40;;;;;;;21.36;50.78;92703.09;4965849;28;20042;-89
2022/06/09 03:37:58;;;;;;;6.15;3.95;;;;;;;21.36;50.68;92711.34;4994555;28;20195;-89
2022/06/09 03:40:24;;;;;;;3.88;3.38;;;;;;;21.36;50.69;92708.59;5000458;28;20173;-88
2022/06/09 03:42:50;;;;;;;4.30;3.53;;;;;;;21.38;50.63;92714.28;5003163;28;20116;-87
2022/06/09 03:45:16;;;;;;;4.90;3.58;;;;;;;21.38;50.65;92700.53;5007193;28;20048;-88
2022/06/09 03:47:41;;;;;;;9.70;8.70;;;;;;;21.40;50.85;92702.72;5015579;28;20068;-89
2022/06/09 03:50:08;;;;;;;12.95;11.38;;;;;;;21.39;50.63;92710.25;4954491;28;20056;-88
2022/06/09 03:52:33;;;;;;;7.03;5.75;;;;;;;21.41;50.64;92704.22;4989606;28;20041;-89
2022/06/09 03:54:59;;;;;;;9.30;6.28;;;;;;;21.45;50.56;92708.03;5005204;28;20412;-89
2022/06/09 03:57:24;;;;;;;12.13;5.72;;;;;;;21.43;50.70;92718.16;5005508;28;20057;-89
2022/06/09 03:59:50;;;;;;;6.88;4.20;;;;;;;21.42;50.39;92708.41;5004237;28;20041;-89
2022/06/09 04:02:15;;;;;;;7.40;4.60;;;;;;;21.38;50.74;92714.28;5001709;28;20090;-89
2022/06/09 04:04:41;;;;;;;9.05;5.07;;;;;;;21.38;50.50;92708.03;4980961;28;20037;-90
2022/06/09 04:07:06;;;;;;;10.55;5.57;;;;;;;21.35;50.56;92709.13;4990417;28;20124;-89
2022/06/09 04:09:32;;;;;;;7.95;5.57;;;;;;;21.35;50.35;92718.13;4987187;28;20044;-90
2022/06/09 04:11:57;;;;;;;13.43;5.55;;;;;;;21.37;50.33;92717.56;5017551;28;20081;-91
2022/06/09 04:14:23;;;;;;;12.13;5.85;;;;;;;21.35;50.23;92718.13;5003056;28;20045;-93
2022/06/09 04:16:49;;;;;;;11.57;5.80;;;;;;;21.35;50.61;92718.13;5024679;28;20065;-91
2022/06/09 04:19:16;;;;;;;10.32;6.00;;;;;;;21.35;50.40;92709.13;4968986;28;20153;-90
2022/06/09 04:21:43;;;;;;;10.23;5.78;;;;;;;21.37;50.36;92707.31;4978697;28;20048;-91
2022/06/09 04:24:15;;;;;;;11.70;6.38;;;;;;;21.37;50.22;92704.56;5008719;28;20064;-91
2022/06/09 04:26:41;;;;;;;9.07;6.35;;;;;;;21.38;50.50;92708.03;4995950;28;20052;-90
2022/06/09 04:29:07;;;;;;;33.60;17.50;;;;;;;21.44;50.37;92711.34;4978653;28;20467;-90
2022/06/09 04:31:33;;;;;;;20.15;13.60;;;;;;;21.40;50.53;92713.72;4995728;28;20712;-89
2022/06/09 04:33:59;;;;;;;36.15;21.35;;;;;;;21.42;50.99;92720.16;4978187;28;20512;-92
2022/06/09 04:36:24;;;;;;;59.47;32.80;;;;;;;21.46;51.36;92712.25;4963340;28;20045;-92
2022/06/09 04:38:50;;;;;;;76.65;44.30;;;;;;;21.43;51.32;92721.63;4989665;28;20980;-91
2022/06/09 04:41:16;;;;;;;101.13;63.55;;;;;;;21.46;50.89;92717.03;4998594;28;20053;-88
2022/06/09 04:43:44;;;;;;;74.53;41.35;;;;;;;21.52;51.31;92718.31;4995319;28;20052;-90
2022/06/09 04:46:14;;;;;;;103.85;54.72;;;;;;;21.52;50.69;92721.06;4975105;28;20688;-87
2022/06/09 04:48:40;;;;;;;133.90;70.78;;;;;;;21.52;50.50;92723.81;4950703;28;20073;-90
2022/06/09 04:51:10;;;;;;;138.23;66.78;;;;;;;21.54;50.20;92724.00;4952149;28;20128;-88
2022/06/09 04:53:35;;;;;;;123.65;70.55;;;;;;;21.55;50.48;92725.47;4986544;28;20084;-91
2022/06/09 04:56:01;;;;;;;121.80;56.85;;;;;;;21.46;50.03;92719.78;5002366;28;20493;-90
2022/06/09 04:58:26;;;;;;;100.30;38.78;;;;;;;21.36;50.00;92729.84;5014812;28;20090;-89
2022/06/09 05:00:52;;;;;;;110.47;38.30;;;;;;;21.32;49.82;92730.19;5010039;28;20102;-89
2022/06/09 05:03:19;;;;;;;105.50;28.58;;;;;;;21.17;50.07;92730.88;5006752;28;20037;-89
2022/06/09 05:05:45;;;;;;;74.63;24.35;;;;;;;21.15;49.80;92738.94;4995362;28;20041;-89
2022/06/09 05:08:14;;;;;;;123.35;30.38;;;;;;;21.12;49.59;92739.28;5028182;28;20087;-90
2022/06/09 05:10:40;;;;;;;77.32;24.85;;;;;;;21.09;49.94;92743.84;5002081;28;20132;-90
2022/06/09 05:13:06;;;;;;;146.02;33.25;;;;;;;21.05;50.01;92748.22;5024274;28;20042;-91
2022/06/09 05:15:35;;;;;;;121.88;28.73;;;;;;;21.04;50.02;92747.50;5019571;28;20045;-91
2022/06/09 05:18:00;;;;;;;158.23;30.20;;;;;;;20.99;49.96;92748.41;5013023;28;20183;-90
2022/06/09 05:20:26;;;;;;;118.43;26.48;;;;;;;21.00;50.21;92754.63;5006748;28;20467;-91
2022/06/09 05:22:52;;;;;;;99.20;19.90;;;;;;;21.01;49.95;92759.56;5012625;28;20125;-91
2022/06/09 05:25:17;;;;;;;105.13;22.95;;;;;;;20.94;50.24;92765.06;5008162;28;21699;-88
2022/06/09 05:27:44;;;;;;;157.23;26.17;;;;;;;21.03;50.47;92759.75;5010474;28;20041;-90
2022/06/09 05:30:13;;;;;;;209.88;37.13;;;;;;;21.07;50.32;92762.16;5017047;28;20048;-91
2022/06/09 05:32:38;;;;;;;315.08;51.95;;;;;;;21.12;50.32;92764.00;5004799;28;20033;-89
2022/06/09 05:35:05;;;;;;;421.80;75.32;;;;;;;21.17;50.17;92769.34;4993226;28;20053;-92
2022/06/09 05:45:46;;;;;;;177.98;46.60;;;;;;;21.28;50.28;92773.06;5032561;28;20060;-90
2022/06/09 05:48:12;;;;;;;169.63;42.50;;;;;;;21.26;50.06;92773.63;4996307;28;20047;-92
2022/06/09 05:50:38;;;;;;;177.93;46.22;;;;;;;21.30;50.20;92778.75;5028173;28;20520;-87
2022/06/09 05:53:03;;;;;;;140.95;37.72;;;;;;;21.27;50.74;92777.09;5010142;28;20049;-90
2022/06/09 05:55:29;;;;;;;152.05;44.25;;;;;;;21.31;50.39;92780.97;4988566;28;20041;-87
2022/06/09 05:57:54;;;;;;;128.90;38.35;;;;;;;21.36;50.22;92771.81;5006160;28;20660;-90
2022/06/09 06:00:19;;;;;;;175.23;45.25;;;;;;;21.34;50.22;92790.16;5001742;28;20041;-86
2022/06/09 06:02:45;;;;;;;200.50;50.10;;;;;;;21.35;50.07;92775.84;4999582;28;20045;-91
2022/06/09 06:06:33;;;;;;;170.35;45.58;;;;;;;21.38;50.33;92785.75;4970905;28;20037;-88
2022/06/09 06:07:56;;;;;;;169.07;45.83;;;;;;;21.37;50.21;92783.56;5010838;28;20061;-89
2022/06/09 06:10:21;;;;;;;162.27;51.83;;;;;;;21.38;50.51;92791.25;5001392;28;20045;-87
2022/06/09 06:12:47;;;;;;;456.42;346.42;;;;;;;21.37;50.62;92798.03;4999374;28;20045;-92
2022/06/09 06:15:13;;;;;;;248.75;148.38;;;;;;;21.45;50.82;92790.53;4993918;28;20046;-87
2022/06/09 06:17:38;;;;;;;131.98;59.22;;;;;;;21.48;50.41;92797.69;4999440;28;20038;-85
2022/06/09 06:20:04;;;;;;;114.43;59.65;;;;;;;21.54;50.19;92801.03;5001046;28;20496;-87
2022/06/09 06:22:30;;;;;;;75.93;33.17;;;;;;;21.60;50.70;92800.13;4993174;28;20047;-87
2022/06/09 06:24:58;;;;;;;69.07;30.65;;;;;;;21.65;49.98;92799.94;5000188;28;20957;-89
2022/06/09 06:27:23;;;;;;;100.07;30.60;;;;;;;21.64;49.92;92801.25;4966778;28;20053;-86
2022/06/09 06:29:49;;;;;;;83.95;31.33;;;;;;;21.55;49.96;92801.75;4972886;28;20045;-87
2022/06/09 06:32:14;;;;;;;85.43;30.55;;;;;;;21.50;50.10;92811.63;4937907;28;20424;-89
2022/06/09 06:34:40;;;;;;;79.90;32.10;;;;;;;21.53;50.05;92794.06;4948315;28;20043;-89
2022/06/09 06:37:05;;;;;;;96.68;34.25;;;;;;;21.53;50.38;92809.81;4935028;28;20067;-91
2022/06/09 06:39:31;;;;;;;105.40;37.88;;;;;;;21.52;50.13;92814.59;4970238;28;20039;-87
2022/06/09 06:41:56;;;;;;;102.55;41.72;;;;;;;21.44;50.14;92811.06;4958544;28;20055;-88
2022/06/09 06:44:22;;;;;;;97.60;36.53;;;;;;;21.47;50.23;92809.97;4971543;28;20062;-91
2022/06/09 06:46:48;;;;;;;110.45;43.45;;;;;;;21.43;50.27;92808.88;4969549;28;20043;-88
2022/06/09 06:49:13;;;;;;;239.80;59.53;;;;;;;21.49;50.26;92804.66;4942431;28;20042;-88
2022/06/09 06:51:39;;;;;;;472.40;96.65;;;;;;;21.47;50.42;92801.00;4941917;28;21475;-92
2022/06/09 06:54:05;;;;;;;179.00;49.45;;;;;;;21.37;50.45;92800.78;4961547;28;20137;-89
2022/06/09 06:56:32;;;;;;;143.25;37.65;;;;;;;21.27;50.66;92808.06;4967355;28;20054;-89
2022/06/09 06:58:58;;;;;;;191.98;46.17;;;;;;;;;;4961176;28;21013;-88
2022/06/09 07:01:23;;;;;;;129.93;32.58;;;;;;;21.16;51.20;92808.38;4959701;28;20567;-89
2022/06/09 07:03:48;;;;;;;111.07;30.45;;;;;;;21.08;51.33;92807.59;4979840;28;20053;-89
2022/06/09 07:06:14;;;;;;;79.35;24.23;;;;;;;21.05;51.43;92809.41;4959785;28;20084;-88
2022/06/09 07:08:39;;;;;;;59.80;20.48;;;;;;;21.08;51.53;92816.59;4998231;28;20129;-92
2022/06/09 07:11:06;;;;;;;65.47;25.00;;;;;;;20.97;51.67;92813.44;4986844;28;20037;-90
2022/06/09 07:13:32;;;;;;;49.70;20.75;;;;;;;20.93;51.64;92822.00;4984992;28;20041;-88
2022/06/09 07:15:57;;;;;;;46.30;18.95;;;;;;;20.98;51.46;92823.88;5005451;28;20083;-87
2022/06/09 07:18:22;;;;;;;33.25;13.48;;;;;;;20.94;51.65;92825.50;5024833;28;20033;-87
2022/06/09 07:20:48;;;;;;;72.00;20.48;;;;;;;20.90;51.66;92825.09;4969162;28;20041;-87
2022/06/09 07:23:13;;;;;;;92.15;27.40;;;;;;;20.97;51.36;92829.91;4986011;28;20436;-89
2022/06/09 07:25:39;;;;;;;109.70;28.92;;;;;;;21.02;51.25;92837.25;4977046;28;20060;-90
2022/06/09 07:28:05;;;;;;;127.38;33.85;;;;;;;21.08;51.31;92844.06;4945226;28;20041;-89
2022/06/09 07:30:30;;;;;;;95.68;29.00;;;;;;;21.07;51.40;92839.84;4959073;28;20111;-91
2022/06/09 07:32:56;;;;;;;265.25;73.72;;;;;;;21.10;51.08;92840.78;4941308;28;20174;-89
2022/06/09 07:35:26;;;;;;;162.60;53.75;;;;;;;21.11;51.26;92848.47;4958547;28;21665;-85
2022/06/09 07:37:52;;;;;;;161.85;52.15;;;;;;;21.13;51.13;92845.94;4992081;28;20122;-86
2022/06/09 07:40:17;;;;;;;145.93;50.60;;;;;;;21.18;51.00;92844.31;4975106;28;20769;-90
2022/06/09 07:42:43;;;;;;;149.63;51.13;;;;;;;21.19;51.01;92848.53;4972282;28;20659;-89
2022/06/09 07:45:09;;;;;;;123.15;45.95;;;;;;;21.22;51.07;92844.69;4931932;28;21119;-89
2022/06/09 07:47:35;;;;;;;111.70;41.05;;;;;;;21.14;51.08;92852.91;4957501;28;20049;-86
2022/06/09 07:50:03;;;;;;;122.28;41.88;;;;;;;21.16;51.07;92855.84;4943041;28;20041;-88
2022/06/09 07:52:28;;;;;;;106.25;38.92;;;;;;;21.16;51.17;92850.34;4924741;28;20046;-88
2022/06/09 07:54:54;;;;;;;136.20;45.22;;;;;;;21.24;51.00;92852.41;4959124;28;20100;-88
2022/06/09 07:57:19;;;;;;;131.95;47.58;;;;;;;21.24;51.21;92855.16;4980719;28;20140;-88
2022/06/09 07:59:46;;;;;;;140.90;45.67;;;;;;;21.19;50.91;92854.75;4991269;28;20463;-87
2022/06/09 08:02:12;;;;;;;103.43;33.00;;;;;;;21.20;51.41;92861.03;5000121;28;20566;-86
2022/06/09 08:04:37;;;;;;;48.17;21.58;;;;;;;21.04;51.62;92860.16;4994347;28;20048;-87
2022/06/09 08:07:03;;;;;;;35.15;15.63;;;;;;;21.01;51.71;92861.25;4980093;28;20771;-86
2022/06/09 08:09:29;;;;;;;33.40;13.63;;;;;;;20.98;51.95;92856.13;5002361;28;20694;-86
2022/06/09 08:11:55;;;;;;;41.75;13.32;;;;;;;20.93;52.36;92865.97;5003366;28;20103;-86
2022/06/09 08:14:20;;;;;;;57.17;17.00;;;;;;;20.97;52.47;92860.13;5006187;28;20042;-86
2022/06/09 08:16:45;;;;;;;43.85;14.65;;;;;;;20.86;52.79;92875.63;4987466;28;20091;-88
2022/06/09 08:19:11;;;;;;;34.70;13.13;;;;;;;20.84;53.09;92869.94;4996790;28;20045;-87
2022/06/09 08:21:37;;;;;;;28.80;11.95;;;;;;;20.86;53.13;92870.13;4969384;28;20045;-87
2022/06/09 08:24:03;;;;;;;92.35;20.70;;;;;;;20.80;53.31;92869.53;5007152;28;20045;-87
2022/06/09 08:26:29;;;;;;;37.47;12.50;;;;;;;20.84;53.38;92863.72;4987710;28;20051;-86
2022/06/09 08:28:55;;;;;;;32.28;11.88;;;;;;;20.77;53.29;92865.16;4986254;28;20041;-86
2022/06/09 08:31:20;;;;;;;26.73;10.68;;;;;;;20.79;53.48;92868.06;4977246;28;20052;-88
2022/06/09 08:33:46;;;;;;;41.58;13.68;;;;;;;20.77;53.59;92869.91;4953918;28;20403;-88
2022/06/09 08:36:11;;;;;;;62.70;15.63;;;;;;;20.77;53.54;92870.63;4967724;28;20041;-87
2022/06/09 08:38:37;;;;;;;43.55;14.15;;;;;;;20.73;53.51;92862.00;4968087;28;21439;-88
2022/06/09 08:41:13;;;;;;;94.45;56.88;;;;;;;20.77;53.48;92876.13;4972651;28;20037;-87
2022/06/09 08:44:04;;;;;;;84.68;27.38;;;;;;;20.80;53.84;92871.56;4970372;28;20709;-87
2022/06/09 08:46:48;;;;;;;45.70;18.50;;;;;;;20.79;54.04;92870.81;4981837;28;20087;-86
2022/06/09 08:49:48;;;;;;;52.53;14.63;;;;;;;20.79;53.90;92870.81;4985087;28;20492;-86
2022/06/09 08:52:33;;;;;;;44.50;15.40;;;;;;;20.84;53.55;92871.94;4982844;28;20052;-88
2022/06/09 08:54:59;;;;;;;44.90;15.48;;;;;;;20.76;53.65;92876.66;4967178;28;20053;-86
2022/06/09 08:57:31;;;;;;;57.15;17.85;;;;;;;20.79;53.83;92873.56;4963382;28;20046;-84
2022/06/09 08:59:57;;;;;;;47.95;19.20;;;;;;;20.84;53.93;92874.69;4973509;28;20214;-87
2022/06/09 09:02:27;;;;;;;58.05;25.38;;;;;;;20.77;54.02;92881.63;4956274;28;20056;-86
2022/06/09 09:05:03;;;;;;;58.53;23.55;;;;;;;20.81;54.52;92881.25;4940559;28;21053;-87
2022/06/09 09:07:30;;;;;;;42.72;20.52;;;;;;;20.84;54.70;92874.69;4932802;28;20057;-86
2022/06/09 09:09:58;;;;;;;42.13;18.98;;;;;;;20.82;54.53;92877.25;4930459;28;20053;-87
2022/06/09 09:12:35;;;;;;;46.83;18.40;;;;;;;20.87;54.43;92887.34;4915111;28;20117;-87
2022/06/09 09:15:19;;;;;;;41.58;17.48;;;;;;;20.92;54.51;92885.75;4935610;28;20224;-87
2022/06/09 09:18:08;;;;;;;44.20;20.42;;;;;;;20.93;54.26;92876.97;4952687;28;20053;-87
2022/06/09 09:20:48;;;;;;;32.05;19.48;;;;;;;20.95;54.26;92870.94;4930670;28;20076;-88
2022/06/09 09:23:19;;;;;;;39.67;17.33;;;;;;;20.99;54.31;92882.31;4914075;28;20146;-88
2022/06/09 09:25:51;;;;;;;151.05;39.25;;;;;;;20.97;54.42;92880.09;4917195;28;20284;-87
2022/06/09 09:28:32;;;;;;;91.80;33.33;;;;;;;20.96;54.21;92873.13;4947705;28;20091;-87
2022/06/09 09:31:23;;;;;;;55.72;26.60;;;;;;;21.01;54.23;92879.75;4946675;28;20191;-86
2022/06/09 09:33:48;;;;;;;111.28;36.75;;;;;;;21.02;54.26;92875.72;4965742;28;20049;-87
2022/06/09 09:36:26;;;;;;;56.75;27.30;;;;;;;21.03;54.12;92882.69;4967169;28;20068;-87
2022/06/09 09:39:08;;;;;;;67.85;27.50;;;;;;;21.01;54.10;92882.50;4968143;28;20128;-90
2022/06/09 09:41:35;;;;;;;101.32;32.63;;;;;;;21.00;54.07;92881.75;5003439;28;20117;-90
2022/06/09 09:44:17;;;;;;;92.68;27.27;;;;;;;21.04;54.14;92878.66;4993516;28;20393;-90
2022/06/09 09:46:49;;;;;;;59.03;19.65;;;;;;;21.00;54.27;92889.28;4988710;28;20850;-88
2022/06/09 09:49:29;;;;;;;48.55;21.85;;;;;;;21.00;54.22;92881.75;4970248;28;20168;-90
2022/06/09 09:51:55;;;;;;;41.40;17.48;;;;;;;21.00;54.04;92881.75;4975843;28;20040;-89
2022/06/09 09:54:31;;;;;;;66.40;20.15;;;;;;;21.02;53.81;92876.44;4986008;28;20049;-87
2022/06/09 09:57:15;;;;;;;66.30;28.25;;;;;;;21.01;53.59;92874.97;4980093;28;20088;-87
2022/06/09 09:59:48;;;;;;;75.45;30.85;;;;;;;21.01;53.61;92880.47;4985155;28;20144;-88
2022/06/09 10:08:36;;;;;;;125.72;49.38;;;;;;;21.05;53.47;92882.88;5020953;28;20051;-87
2022/06/09 10:11:53;;;;;;;139.20;51.08;;;;;;;21.10;53.20;92876.50;5016534;28;20098;-89
2022/06/09 10:13:50;;;;;;;140.63;50.83;;;;;;;21.08;53.27;92870.81;5004226;28;20041;-89
2022/06/09 10:16:15;;;;;;;188.95;54.47;;;;;;;21.06;53.19;92871.34;5013619;28;20047;-89
2022/06/09 10:18:43;;;;;;;148.32;44.42;;;;;;;21.09;53.22;92875.03;5003305;28;20036;-89
2022/06/09 10:21:11;;;;;;;109.82;37.08;;;;;;;21.09;53.14;92892.25;4989234;28;20056;-88
2022/06/09 10:23:45;;;;;;;72.70;28.02;;;;;;;21.02;53.50;92892.19;5016569;28;20032;-90
2022/06/09 10:26:11;;;;;;;88.40;35.33;;;;;;;21.08;53.36;92892.81;5016454;28;20045;-89
2022/06/09 10:28:47;;;;;;;100.28;49.40;;;;;;;21.12;53.37;92899.44;5009633;28;20059;-87
2022/06/09 10:31:43;;;;;;;105.30;52.58;;;;;;;21.07;53.45;92903.06;5002163;28;20037;-88
2022/06/09 10:34:27;;;;;;;76.03;33.95;;;;;;;21.10;53.31;92904.00;4994326;28;20881;-89
2022/06/09 10:37:01;;;;;;;155.27;92.65;;;;;;;21.16;53.02;92901.84;5007202;28;20052;-89
2022/06/09 10:39:37;;;;;;;111.63;65.18;;;;;;;21.13;52.94;92909.16;5008233;28;20084;-87
2022/06/09 10:42:14;;;;;;;72.93;29.92;;;;;;;21.17;53.22;92919.81;5006512;28;20041;-87
2022/06/09 10:44:49;;;;;;;64.82;29.70;;;;;;;21.16;53.01;92923.81;5004903;28;20041;-87
2022/06/09 10:56:02;;;;;;;57.72;31.10;;;;;;;21.23;52.85;92931.38;5010351;28;20091;-89
2022/06/09 10:58:32;;;;;;;70.10;35.45;;;;;;;21.27;52.69;92929.03;4987165;28;20053;-88
2022/06/09 11:00:58;;;;;;;92.15;38.28;;;;;;;21.24;52.76;92935.63;5002769;28;20053;-88
2022/06/09 11:03:26;;;;;;;151.93;43.15;;;;;;;21.24;52.71;92937.63;5019893;28;20064;-88
2022/06/09 11:06:22;;;;;;;94.60;34.53;;;;;;;21.23;52.77;92941.66;4966960;28;20057;-87
2022/06/09 11:08:55;;;;;;;168.40;49.75;;;;;;;21.23;52.87;92934.13;5001823;28;20052;-87
2022/06/09 11:11:47;;;;;;;134.50;42.92;;;;;;;21.23;52.67;92944.41;5012444;28;20132;-89
2022/06/09 11:14:37;;;;;;;97.07;41.45;;;;;;;21.23;52.51;92947.88;5024587;28;20119;-92
2022/06/09 11:17:06;;;;;;;104.22;46.20;;;;;;;21.28;52.59;92954.50;4996007;28;20448;-90
2022/06/09 11:20:07;;;;;;;125.70;49.20;;;;;;;21.27;52.67;92955.78;4981098;28;20049;-92
2022/06/09 11:22:45;;;;;;;119.10;55.28;;;;;;;21.27;52.84;92959.28;4969676;28;20056;-91
2022/06/09 11:25:44;;;;;;;126.22;56.80;;;;;;;21.28;52.63;92968.25;5014660;28;20396;-90
2022/06/09 11:28:30;;;;;;;161.98;82.88;;;;;;;21.31;52.51;92967.91;5013127;28;20048;-90
2022/06/09 11:31:26;;;;;;;232.93;92.00;;;;;;;21.28;52.84;92958.00;5002340;28;20905;-88
2022/06/09 11:34:23;;;;;;;257.33;91.95;;;;;;;21.31;52.94;92967.91;5004436;28;20103;-91
2022/06/09 11:37:00;;;;;;;218.75;91.97;;;;;;;21.35;52.65;92973.09;5003238;28;20041;-90
2022/06/09 11:39:50;;;;;;;245.55;91.45;;;;;;;21.32;52.76;92972.16;5022382;28;20048;-85
2022/06/09 11:42:25;;;;;;;233.63;92.18;;;;;;;21.32;52.75;92958.41;5000449;28;20541;-88
2022/06/09 11:44:52;;;;;;;217.45;96.43;;;;;;;21.35;52.67;92962.09;5004960;28;20041;-89
2022/06/09 11:47:19;;;;;;;197.43;90.68;;;;;;;21.36;52.75;92974.56;4986060;28;20152;-86
2022/06/09 11:49:47;;;;;;;209.95;91.18;;;;;;;21.38;52.62;92964.50;4975735;28;20463;-90
2022/06/09 11:52:23;;;;;;;310.63;116.18;;;;;;;21.34;52.39;92975.09;4968607;28;20124;-89
2022/06/09 11:54:50;;;;;;;113.03;54.80;;;;;;;21.26;53.24;92966.06;4994456;28;20039;-88
2022/06/09 11:57:16;;;;;;;79.68;41.65;;;;;;;21.23;53.42;92961.63;5020779;28;20048;-87